ADDS METAR Data INFO
IDs: Format: Raw Decoded Include TAF

Data at: 1349 UTC 23 Jun 2018

K3R7 231335Z AUTO 19006KT 10SM CLR 28/25 A2994 RMK AO2 T02780250
K3R7 231315Z AUTO 20004KT 10SM CLR 27/25 A2993 RMK AO2 T02720248
K3R7 231255Z AUTO 19004KT 10SM CLR 27/25 A2992 RMK AO2 T02670245
K3R7 231235Z AUTO 00000KT 10SM CLR 26/24 A2992 RMK AO2 T02610242
K3R7 231215Z AUTO 00000KT 10SM CLR 26/24 A2992 RMK AO2 T02550239
K3R7 231155Z AUTO 00000KT 10SM CLR 25/24 A2992 RMK AO2 T02480236 10256 20248
K3R7 231135Z AUTO 00000KT 10SM CLR 25/24 A2991 RMK AO2 T02490235
K3R7 231115Z AUTO 00000KT 10SM CLR 25/23 A2989 RMK AO2 T02500234
K3R7 231055Z AUTO 00000KT 10SM CLR 25/23 A2989 RMK AO2 T02500234
K3R7 231035Z AUTO 19003KT 10SM CLR 25/23 A2989 RMK AO2 T02500233
K3R7 231015Z AUTO 19003KT 10SM CLR 25/23 A2989 RMK AO2 T02500233
K3R7 230955Z AUTO 20003KT 10SM CLR 25/23 A2989 RMK AO2 T02500233
K3R7 230935Z AUTO 20003KT 10SM SCT024 SCT031 25/23 A2990 RMK AO2 T02500233
K3R7 230915Z AUTO 00000KT 10SM SCT024 BKN031 25/24 A2989 RMK AO2 T02500235
K3R7 230855Z AUTO 00000KT 10SM SCT030 25/24 A2990 RMK AO2 T02500236
K3R7 230835Z AUTO 00000KT 10SM CLR 25/24 A2989 RMK AO2 T02510237
K3R7 230815Z AUTO 19003KT 10SM SCT023 25/24 A2989 RMK AO2 T02520237
K3R7 230755Z AUTO 20003KT 10SM SCT023 25/24 A2989 RMK AO2 T02530239
K3R7 230735Z AUTO 00000KT 10SM SCT020 SCT025 25/24 A2989 RMK AO2 T02520240
K3R7 230715Z AUTO 00000KT 10SM CLR 25/24 A2988 RMK AO2 T02540241
K3R7 230655Z AUTO 00000KT 10SM CLR 26/24 A2988 RMK AO2 T02550242
K3R7 230635Z AUTO 19003KT 10SM CLR 26/24 A2987 RMK AO2 T02550242
K3R7 230615Z AUTO 19004KT 10SM CLR 26/24 A2987 RMK AO2 T02560243
K3R7 230555Z AUTO 18005KT 10SM CLR 26/24 A2987 RMK AO2 T02560242 10297 20256 403210242
K3R7 230535Z AUTO 19003KT 10SM CLR 26/24 A2987 RMK AO2 T02570242
K3R7 230515Z AUTO 20004KT 10SM SCT017 26/24 A2987 RMK AO2 T02590242
K3R7 230455Z AUTO 20003KT 10SM SCT017 26/24 A2986 RMK AO2 T02580242
K3R7 230435Z AUTO 19004KT 10SM CLR 26/24 A2986 RMK AO2 T02600242
K3R7 230415Z AUTO 19005KT 10SM SCT019 26/24 A2987 RMK AO2 T02610242
K3R7 230355Z AUTO 20003KT 10SM SCT019 26/24 A2987 RMK AO2 T02620242
K3R7 230335Z AUTO 20004KT 10SM CLR 26/24 A2987 RMK AO2 T02630243
K3R7 230315Z AUTO 20004KT 10SM CLR 26/24 A2987 RMK AO2 T02630242
K3R7 230255Z AUTO 19004KT 10SM CLR 27/24 A2986 RMK AO2 T02650241
K3R7 230235Z AUTO 19004KT 10SM CLR 27/24 A2986 RMK AO2 T02660241
K3R7 230215Z AUTO 20004KT 10SM CLR 27/24 A2986 RMK AO2 T02680240
K3R7 230155Z AUTO 21005KT 10SM CLR 27/24 A2987 RMK AO2 T02700238
K3R7 230135Z AUTO 20005KT 10SM CLR 27/24 A2986 RMK AO2 T02730235
K3R7 230115Z AUTO 20006KT 10SM CLR 28/23 A2985 RMK AO2 T02780231
K3R7 230055Z AUTO 21006KT 10SM CLR 28/24 A2985 RMK AO2 T02830235
K3R7 230035Z AUTO 20010G15KT 10SM CLR 29/24 A2984 RMK AO2 T02880235
K3R7 230015Z AUTO 20008KT 10SM CLR 29/24 A2985 RMK AO2 T02930239
K3R7 222355Z AUTO 20008G15KT 10SM SCT024 30/24 A2985 RMK AO2 T02980239 10321 20296
K3R7 222335Z AUTO 21009G15KT 10SM CLR 30/24 A2985 RMK AO2 T02970241
K3R7 222315Z AUTO 20009G14KT 10SM SCT030 31/24 A2984 RMK AO2 T03050243
K3R7 222255Z AUTO 20009G17KT 10SM SCT030 31/24 A2984 RMK AO2 T03090242
K3R7 222235Z AUTO 20008G14KT 10SM SCT028 32/24 A2985 RMK AO2 T03150242
K3R7 222215Z AUTO 21010G17KT 10SM CLR 32/24 A2986 RMK AO2 T03180243
K3R7 222155Z AUTO 20007KT 10SM SCT031 32/24 A2987 RMK AO2 T03170244
K3R7 222135Z AUTO 22010G16KT 10SM SCT031 32/25 A2987 RMK AO2 T03180245
K3R7 222115Z AUTO 21009G14KT 10SM SCT031 SCT037 32/24 A2987 RMK AO2 T03190243
K3R7 222055Z AUTO 22009G15KT 10SM SCT033 SCT046 32/24 A2987 RMK AO2 T03180241
K3R7 222035Z AUTO 22010G15KT 10SM SCT033 BKN044 32/24 A2987 RMK AO2 T03180244
K3R7 222015Z AUTO 22010G16KT 10SM SCT033 BKN044 32/24 A2989 RMK AO2 T03170243
K3R7 221955Z AUTO 22009G18KT 10SM SCT031 SCT036 32/24 A2989 RMK AO2 T03150241
K3R7 221935Z AUTO 23010KT 10SM SCT031 SCT038 SCT044 32/25 A2989 RMK AO2 T03180245
K3R7 221915Z AUTO 22010G17KT 10SM SCT033 SCT044 32/24 A2991 RMK AO2 T03200239
K3R7 221855Z AUTO 22011KT 10SM SCT033 32/24 A2992 RMK AO2 T03200240
K3R7 221835Z AUTO 23009G17KT 10SM SCT033 32/24 A2992 RMK AO2 T03210241
K3R7 221815Z AUTO 10SM CLR 32/24 A2993 RMK AO2 T03170237
K3R7 221755Z AUTO 22011KT 10SM SCT030 32/24 A2994 RMK AO2 T03160236 10318 20246
K3R7 221735Z AUTO 24010KT 10SM SCT030 31/24 A2994 RMK AO2 T03140239
K3R7 221715Z AUTO 25012KT 10SM SCT030 31/24 A2995 RMK AO2 T03100238
K3R7 221655Z AUTO 10SM SCT030 SCT049 31/24 A2995 RMK AO2 T03100238
K3R7 221635Z AUTO 23008G15KT 10SM SCT025 SCT032 SCT038 31/25 A2994 RMK AO2 T03090246
K3R7 221615Z AUTO 23008KT 10SM SCT023 SCT031 SCT037 31/25 A2994 RMK AO2 T03060246
K3R7 221555Z AUTO 10SM SCT021 BKN028 BKN043 30/25 A2994 RMK AO2 T03030247
K3R7 221535Z AUTO 23007KT 10SM SCT021 BKN028 BKN036 30/25 A2994 RMK AO2 T02970249
K3R7 221515Z AUTO 24009KT 10SM BKN021 BKN029 OVC034 29/25 A2994 RMK AO2 T02910250
K3R7 221455Z AUTO 22008KT 10SM SCT019 BKN026 29/25 A2993 RMK AO2 T02920249
K3R7 221435Z AUTO 23011G14KT 10SM SCT016 SCT022 29/25 A2993 RMK AO2 T02850248
K3R7 221415Z AUTO 23007KT 10SM BKN014 BKN020 BKN026 28/25 A2993 RMK AO2 T02810249
K3R7 221355Z AUTO 23007KT 10SM OVC012 28/25 A2993 RMK AO2 T02760251
K3R7 221335Z AUTO 21007KT 10SM BKN010 27/26 A2992 RMK AO2 T02740255
K3R7 221315Z AUTO 21008KT 10SM CLR 27/25 A2992 RMK AO2 T02700252
K3R7 221255Z AUTO 21004KT 10SM CLR 27/25 A2992 RMK AO2 T02650250
K3R7 221235Z AUTO 20003KT 7SM SCT015 26/25 A2992 RMK AO2 T02570247
K3R7 221215Z AUTO 18003KT 7SM SCT015 25/25 A2991 RMK AO2 T02510245
K3R7 221155Z AUTO 19003KT 7SM CLR 25/24 A2991 RMK AO2 70133 T02460240 10250 20242
K3R7 221135Z AUTO 00000KT 7SM CLR 24/24 A2990 RMK AO2 T02430238
K3R7 221115Z AUTO 00000KT 5SM BR CLR 24/24 A2990 RMK AO2 T02420237
K3R7 221055Z AUTO 21003KT 7SM SCT013 24/24 A2991 RMK AO2 T02430238
K3R7 221035Z AUTO 23003KT 7SM SCT013 25/24 A2991 RMK AO2 T02450238
K3R7 221015Z AUTO 00000KT 10SM CLR 25/24 A2990 RMK AO2 T02450239
K3R7 220955Z AUTO 21004KT 10SM CLR 25/24 A2990 RMK AO2 T02460240
K3R7 220935Z AUTO 20004KT 10SM CLR 25/24 A2990 RMK AO2 T02460240
K3R7 220915Z AUTO 20004KT 10SM CLR 25/24 A2990 RMK AO2 T02460240
K3R7 220855Z AUTO 21005KT 10SM CLR 25/24 A2990 RMK AO2 T02470240
K3R7 220835Z AUTO 21003KT 10SM CLR 25/24 A2989 RMK AO2 T02480240
K3R7 220815Z AUTO 21004KT 10SM CLR 25/24 A2989 RMK AO2 T02480240
K3R7 220755Z AUTO 20004KT 10SM CLR 25/24 A2989 RMK AO2 T02480240
K3R7 220735Z AUTO 20004KT 10SM CLR 25/24 A2989 RMK AO2 T02490239
K3R7 220715Z AUTO 20004KT 10SM CLR 25/24 A2990 RMK AO2 T02500240
K3R7 220655Z AUTO 21005KT 10SM CLR 25/24 A2990 RMK AO2 T02500240
K3R7 220635Z AUTO 21003KT 10SM CLR 25/24 A2990 RMK AO2 T02500241
K3R7 220615Z AUTO 19003KT 10SM CLR 25/24 A2991 RMK AO2 T02500242
K3R7 220555Z AUTO 00000KT 10SM CLR 25/24 A2991 RMK AO2 T02480241 10280 20248 402820226
K3R7 220535Z AUTO 00000KT 7SM CLR 25/24 A2992 RMK AO2 T02480242
K3R7 220515Z AUTO 00000KT 10SM CLR 25/24 A2993 RMK AO2 T02500242
K3R7 220455Z AUTO 00000KT 10SM CLR 25/24 A2993 RMK AO2 T02510242
K3R7 220435Z AUTO 00000KT 10SM CLR 25/24 A2993 RMK AO2 T02530242
K3R7 220415Z AUTO 00000KT 10SM CLR 26/25 A2993 RMK AO2 T02550245
K3R7 220355Z AUTO 00000KT 10SM CLR 26/25 A2992 RMK AO2 T02550245
K3R7 220335Z AUTO 00000KT 10SM CLR 26/25 A2992 RMK AO2 T02560245
K3R7 220315Z AUTO 00000KT 10SM CLR 26/25 A2992 RMK AO2 T02580245
K3R7 220255Z AUTO 00000KT 10SM CLR 26/25 A2992 RMK AO2 T02580245
K3R7 220235Z AUTO 00000KT 10SM CLR 26/25 A2992 RMK AO2 T02600246
K3R7 220215Z AUTO 00000KT 10SM CLR 26/25 A2991 RMK AO2 T02610246
K3R7 220155Z AUTO 00000KT 10SM CLR 27/25 A2991 RMK AO2 T02650246